Perry, Illinois
Current Conditions -  °F | °C
As of 5:15 PM on Sunday 21 Dec 2014 (Local Time) from KPPQ Reporting Station
Overcast Overcast  
Wind Chill:   Ceiling: 2400
Heat Index:   Visibility: 10mi
Dew Point:   Wind: 12mph
Humidity: 78%   Direction: 140°SE
Pressure: 29.99"   Gusts: NA
Location:  39.78°N, 90.75°W
Report Text: KPPQ 212315Z AUTO 14010KT 10SM OVC024 05/01 A2999 RMK AO2 T00480012
Loading
Personal Weather Stations






























Interactive Weather Map New forecast layout! Learn more

10-Day Weather Forecast

Advertisements
Track Severe Weather on mobile